Latest Coastal Weather Observations for Mackay

IDQ60701

Issued at 12:05 pm EST Sunday 21 September 2014 (issued every 10 minutes, with the page automatically refreshed every 10 minutes)

About coastal observations | Map of coastal stations | Coastal observations for QLD | Marine services | Other Formats
Station Details ID: 033119 Name: MACKAY M.O Lat: -21.12 Lon: 149.22 Height: 30.26 m
Data from the previous 72 hours. | See also: Recent months at Mackay
Date/Time
EST
Temp

°C
Wind Pressure Rain
since 9am
mm
Weather Cloud Vis
km
Sea
Height
m
Swell
Dir
 
Speed
knots
Gust
knots
hPa Trend Height
m
Period
s
Dir
21/12:00pm 23.2 E 9 15 1020.0 - 0.0 - Partly cloudy 10 - - - -
21/11:30am 24.0 E 11 16 1020.1 - 0.0 - - - - - - -
21/11:00am 23.7 E 11 17 1020.3 - 0.0 - Partly cloudy 10 - - - -
21/10:30am 23.7 E 11 17 1020.5 - 0.0 - Partly cloudy 10 - - - -
21/10:00am 23.2 E 10 16 1020.9 - 0.0 - Partly cloudy 10 - - - -
21/09:30am 23.3 E 12 17 1020.8 - 0.0 - Partly cloudy 10 - - - -
21/09:00am 23.5 E 9 15 1020.6 S 0.0 Haze Mostly cloudy 25 - - - -
21/08:30am 22.8 E 9 14 1020.4 - 0.0 - Partly cloudy 10 - - - -
21/08:00am 22.4 E 10 16 1020.3 - 0.0 - Partly cloudy 10 - - - -
21/07:30am 22.4 E 11 15 1020.1 - 0.0 - Partly cloudy 10 - - - -
21/07:00am 21.8 E 8 12 1019.6 - 0.0 - Partly cloudy 10 - - - -
21/06:30am 21.7 E 10 13 1019.2 - 0.0 - Partly cloudy 10 - - - -
21/06:00am 21.6 E 10 15 1018.9 R 0.0 Haze Mostly cloudy 25 - - - -
21/05:30am 21.6 E 10 15 1018.3 - 0.0 - Partly cloudy - - - - -
21/05:00am 21.6 E 8 13 1017.8 - 0.0 - Partly cloudy - - - - -
21/04:30am 21.5 E 8 11 1017.5 - 0.0 - Partly cloudy - - - - -
21/04:00am 21.3 E 7 10 1017.3 - 0.0 - Partly cloudy - - - - -
21/03:30am 21.3 E 7 11 1017.3 - 0.0 - Partly cloudy - - - - -
21/03:00am 21.2 E 6 10 1017.2 - 0.0 - Partly cloudy - - - - -
21/02:30am 21.4 E 5 7 1017.7 - 0.0 - Partly cloudy - - - - -
21/02:00am 21.3 ENE 5 9 1018.1 - 0.0 - Partly cloudy - - - - -
21/01:30am 21.3 ENE 6 9 1018.5 - 0.0 - Partly cloudy - - - - -
21/01:00am 20.8 NE 5 8 1018.7 - 0.0 - - - - - - -
21/12:30am 20.8 NE 5 7 1019.0 - 0.0 - Partly cloudy - - - - -
21/12:00am 21.1 ENE 5 9 1019.2 - 0.0 - Mostly clear - - - - -
 
Date/Time
EST
Temp

°C
Wind Pressure Rain
since 9am
mm
Weather Cloud Vis
km
Sea
Height
m
Swell
Dir
 
Speed
knots
Gust
knots
hPa Trend Height
m
Period
s
Dir
20/11:30pm 21.1 ENE 6 9 1019.2 - 0.0 - - - - - - -
20/11:00pm 21.3 NE 6 10 1019.4 - 0.0 - Partly cloudy - - - - -
20/10:30pm 21.5 NE 6 9 1019.3 - 0.0 - Partly cloudy - - - - -
20/10:00pm 21.5 ENE 7 12 1019.3 - 0.0 - Partly cloudy - - - - -
20/09:30pm 21.5 ENE 7 14 1019.4 - 0.0 - Partly cloudy - - - - -
20/09:00pm 21.7 ENE 8 12 1019.3 R 0.0 - Mostly clear - - - - -
20/08:30pm 21.7 ENE 7 13 1019.2 - 0.0 - Partly cloudy - - - - -
20/08:00pm 21.7 ENE 8 13 1018.9 - 0.0 - - - - - - -
20/07:30pm 21.9 ENE 9 12 1018.5 - 0.0 - Partly cloudy - - - - -
20/07:00pm 21.8 ENE 9 13 1017.9 - 0.0 - Partly cloudy - - - - -
20/06:30pm 21.8 ENE 8 12 1017.4 - 0.0 - Partly cloudy - - - - -
20/06:00pm 22.0 E 9 13 1016.8 R 0.0 - Mostly clear - - - - -
20/05:30pm 22.3 E 10 13 1016.1 - 0.0 - Partly cloudy - - - - -
20/05:00pm 22.6 E 9 13 1015.6 - 0.0 - Mostly clear 10 - - - -
20/04:30pm 23.1 ENE 8 13 1015.1 - 0.0 - Mostly clear 10 - - - -
20/04:00pm 23.5 ENE 10 15 1014.7 - 0.0 - Mostly clear 10 - - - -
20/03:30pm 24.6 ENE 8 14 1014.6 - 0.0 - Mostly clear 10 - - - -
20/03:00pm 24.7 ENE 9 14 1014.7 S 0.0 Fine Mostly cloudy 25 - - - -
20/02:30pm 25.5 E 10 17 1015.0 - 0.0 - Mostly clear 10 - - - -
20/02:00pm 24.9 ENE 10 14 1015.4 - 0.0 - Mostly clear 10 - - - -
20/01:30pm 24.5 ENE 9 13 1015.7 - 0.0 - Mostly clear 10 - - - -
20/01:00pm 25.4 ENE 7 11 1016.2 - 0.0 - Mostly clear 10 - - - -
20/12:30pm 24.7 ENE 8 11 1016.7 - 0.0 - Mostly clear 10 - - - -
20/12:00pm 25.9 NE 6 11 1016.9 F 0.0 Fine Mostly clear 25 - - - -
20/11:30am 27.3 NNE 6 10 1017.3 - 0.0 - Mostly clear 10 - - - -
20/11:00am 27.1 NNE 6 10 1017.6 - 0.0 - Mostly clear 10 - - - -
20/10:30am 26.7 N 7 10 1018.0 - 0.0 - Mostly clear 10 - - - -
20/10:00am 24.5 E 7 10 1018.4 - 0.0 - Mostly clear 10 - - - -
20/09:30am 23.9 NNE 5 8 1018.7 - 0.0 - Mostly clear 10 - - - -
20/09:00am 23.3 N 2 5 1018.7 F 0.0 Fine Mostly clear 20 - - - -
20/08:30am 21.6 SW 5 7 1018.7 - 0.0 - Mostly clear 10 - - - -
20/08:00am 20.3 WSW 6 8 1018.6 - 0.0 - Mostly clear 10 - - - -
20/07:30am 18.8 WSW 6 8 1018.1 - 0.0 - Mostly clear 10 - - - -
20/07:00am 17.7 WSW 5 7 1017.8 - 0.0 - Mostly clear 10 - - - -
20/06:30am 17.1 WSW 6 8 1017.4 - 0.0 - Mostly clear 10 - - - -
20/06:00am 16.6 WSW 6 7 1017.1 F 0.0 Distant fog Mostly clear 20 - - - -
20/05:30am 16.4 WSW 6 7 1016.9 - 0.0 - - - - - - -
20/05:00am 16.5 SW 6 8 1016.8 - 0.0 - - - - - - -
20/04:30am 16.7 WSW 6 8 1016.4 - 0.0 - - - - - - -
20/04:00am 16.8 SW 6 7 1016.2 - 0.0 - Partly cloudy - - - - -
20/03:30am 17.1 SW 6 7 1016.3 - 0.0 - Partly cloudy - - - - -
20/03:00am 17.4 WSW 6 7 1016.5 - 0.0 - Mostly cloudy - - - - -
20/02:30am 17.7 SW 5 7 1016.7 - 0.0 - Partly cloudy - - - - -
20/02:00am 17.8 WSW 6 7 1017.0 - 0.0 - Partly cloudy - - - - -
20/01:30am 17.9 WSW 4 6 1017.3 - 0.0 - - - - - - -
20/01:00am 18.2 WSW 4 5 1017.4 - 0.0 - Partly cloudy - - - - -
20/12:30am 18.4 WSW 2 4 1017.6 - 0.0 - - - - - - -
20/12:00am 18.4 WSW 4 5 1018.3 - 0.0 - - - - - - -
 
Date/Time
EST
Temp

°C
Wind Pressure Rain
since 9am
mm
Weather Cloud Vis
km
Sea
Height
m
Swell
Dir
 
Speed
knots
Gust
knots
hPa Trend Height
m
Period
s
Dir
19/11:30pm 18.7 WSW 2 5 1018.4 - 0.0 - - - - - - -
19/11:00pm 19.8 N 2 4 1018.5 - 0.0 - Partly cloudy - - - - -
19/10:30pm 20.6 N 4 6 1018.6 - 0.0 - Partly cloudy - - - - -
19/10:00pm 20.5 NNE 5 9 1018.6 - 0.0 - Partly cloudy - - - - -
19/09:30pm 20.4 NNE 4 9 1018.7 - 0.0 - Partly cloudy - - - - -
19/09:00pm 20.3 NE 4 7 1018.6 R 0.0 - Mostly clear - - - - -
19/08:30pm 20.4 NE 5 8 1018.4 - 0.0 - - - - - - -
19/08:00pm 21.0 ENE 6 9 1018.3 - 0.0 - - - - - - -
19/07:30pm 21.1 E 7 9 1017.9 - 0.0 - - - - - - -
19/07:00pm 21.3 E 6 9 1017.5 - 0.0 - - - - - - -
19/06:30pm 21.3 E 6 10 1016.9 - 0.0 - - - - - - -
19/06:00pm 21.4 E 6 8 1016.6 R 0.0 - - - - - - -
19/05:30pm 21.8 E 8 11 1016.4 - 0.0 - - - - - - -
19/05:00pm 21.9 E 8 11 1016.2 - 0.0 - - - - - - -
19/04:30pm 22.3 E 8 13 1016.1 - 0.0 - Mostly clear 10 - - - -
19/04:00pm 23.2 E 8 11 1015.9 - 0.0 - Mostly clear 10 - - - -
19/03:30pm 23.1 E 8 12 1015.8 - 0.0 - Mostly clear 10 - - - -
19/03:00pm 23.1 E 7 11 1015.7 F 0.0 Haze Mostly cloudy 20 - - - -
19/02:30pm 23.3 E 7 11 1016.0 - 0.0 - Mostly clear 10 - - - -
19/02:00pm 23.1 E 7 10 1016.2 - 0.0 - Mostly clear 10 - - - -
19/01:30pm 23.1 ESE 7 10 1016.7 - 0.0 - - - - - - -
19/01:00pm 23.1 ESE 6 9 1017.3 - 0.0 - Mostly clear 10 - - - -
19/12:30pm 23.6 SE 6 9 1017.7 - 0.0 - Mostly clear 10 - - - -
19/12:00pm 24.0 SE 6 8 1018.4 F 0.0 Haze Mostly clear 20 - - - -
19/11:30am 23.7 SE 6 8 1018.9 - 0.0 - Mostly clear 10 - - - -
19/11:00am 22.9 SSE 7 10 1019.5 - 0.0 - Mostly clear 10 - - - -
19/10:30am 22.8 SE 5 8 1019.9 - 0.0 - Partly cloudy 10 - - - -
19/10:00am 23.0 SSE 4 7 1020.1 - 0.0 - Partly cloudy 10 - - - -
19/09:30am 22.1 SSE 6 9 1020.3 - 0.0 - Mostly cloudy 10 - - - -
19/09:00am 22.4 SSE 7 11 1020.1 F 0.0 Haze Mostly clear 20 - - - -
19/08:30am 21.4 SSW 5 8 1020.0 - 0.0 - Mostly clear 10 - - - -
19/08:00am 19.6 SSW 6 9 1019.9 - 0.0 - Mostly clear 10 - - - -
19/07:30am 17.9 SW 5 8 1019.6 - 0.0 - Mostly clear 10 - - - -
19/07:00am 16.1 SW 6 8 1019.2 - 0.0 - Mostly clear 10 - - - -
19/06:30am 14.8 SW 7 9 1018.8 - 0.0 - Mostly clear 10 - - - -
19/06:00am 14.7 SW 7 8 1018.5 S 0.0 Haze Mostly clear 25 - - - -
19/05:30am 15.0 SW 7 10 1018.3 - 0.0 - - - - - - -
19/05:00am 15.0 SW 8 9 1017.9 - 0.0 - - - - - - -
19/04:30am 15.1 SW 7 9 1017.6 - 0.0 - - - - - - -
19/04:00am 15.3 SW 7 8 1017.5 - 0.0 - - - - - - -
19/03:30am 15.5 SW 7 9 1017.4 - 0.0 - - - - - - -
19/03:00am 15.7 SW 7 9 1017.6 - 0.0 - Partly cloudy - - - - -
19/02:30am 15.8 SW 6 8 1017.8 - 0.0 - - - - - - -
19/02:00am 16.2 SW 7 8 1017.9 - 0.0 - - - - - - -
19/01:30am 16.5 SW 7 9 1017.9 - 0.0 - - - - - - -
19/01:00am 16.8 WSW 6 8 1018.0 - 0.0 - - - - - - -
19/12:30am 17.0 WSW 6 8 1018.4 - 0.0 - Partly cloudy - - - - -
19/12:00am 17.2 SW 7 9 1018.4 - 0.0 - Partly cloudy - - - - -
 
Date/Time
EST
Temp

°C
Wind Pressure Rain
since 9am
mm
Weather Cloud Vis
km
Sea
Height
m
Swell
Dir
 
Speed
knots
Gust
knots
hPa Trend Height
m
Period
s
Dir
18/11:30pm 17.6 SW 6 7 1018.7 - 0.0 - Partly cloudy - - - - -
18/11:00pm 18.3 SW 5 7 1018.8 - 0.0 - Partly cloudy - - - - -
18/10:30pm 19.2 SSW 5 6 1018.8 - 0.0 - Partly cloudy - - - - -
18/10:00pm 20.8 SE 5 9 1018.7 - 0.0 - Partly cloudy - - - - -
18/09:30pm 21.0 SE 5 8 1018.6 - 0.0 - Partly cloudy - - - - -
18/09:00pm 21.0 SE 5 9 1018.4 S 0.0 - Partly cloudy - - - - -
18/08:30pm 21.0 ESE 5 8 1018.3 - 0.0 - Partly cloudy - - - - -
18/08:00pm 20.9 ESE 6 8 1017.8 - 0.0 - Partly cloudy - - - - -
18/07:30pm 20.8 SE 5 8 1017.5 - 0.0 - Partly cloudy - - - - -
18/07:00pm 20.8 SE 5 8 1017.2 - 0.0 - - - - - - -
18/06:30pm 20.9 SE 6 8 1017.0 - 0.0 - - - - - - -
18/06:00pm 21.5 E 7 11 1016.6 R 0.0 - - - - - - -
18/05:30pm 21.8 ESE 7 11 1016.2 - 0.0 - - - - - - -
18/05:00pm 22.1 E 9 14 1015.8 - 0.0 - - 10 - - - -
18/04:30pm 22.4 E 10 16 1015.4 - 0.0 - - 10 - - - -
18/04:00pm 22.8 ESE 9 15 1015.2 - 0.0 - - 10 - - - -
18/03:30pm 23.4 ESE 9 16 1015.2 - 0.0 - - 10 - - - -
18/03:00pm 23.7 ESE 10 20 1015.3 R 0.0 Haze Clear 30 - - - -
18/02:30pm 23.6 ESE 11 18 1015.5 - 0.0 - - 10 - - - -
18/02:00pm 24.5 SE 11 19 1015.8 - 0.0 - - 10 - - - -
18/01:30pm 24.7 SE 11 18 1016.2 - 0.0 - - 10 - - - -
18/01:00pm 24.7 SE 12 20 1016.6 - 0.0 - - 10 - - - -
18/12:30pm 24.9 SE 13 21 1016.9 - 0.0 - - - - - - -

Other Formats:

Comma delimited format used in spreadsheet applications
http://www.bom.gov.au/fwo/IDQ60701/IDQ60701.94367.axf

JavaScript Object Notation format (JSON) in row-major order
http://www.bom.gov.au/fwo/IDQ60701/IDQ60701.94367.json